sensor_id;sensor_type;location;lat;lon;timestamp;P1;durP1;ratioP1;P2;durP2;ratioP2
51852;SDS011;37894;53.172;6.598;2023-02-15T00:01:18;80.57;;;43.95;;
51852;SDS011;37894;53.172;6.598;2023-02-15T00:03:44;74.03;;;43.08;;
51852;SDS011;37894;53.172;6.598;2023-02-15T00:06:09;74.03;;;43.40;;
51852;SDS011;37894;53.172;6.598;2023-02-15T00:08:35;66.93;;;41.55;;
51852;SDS011;37894;53.172;6.598;2023-02-15T00:11:07;72.00;;;39.80;;
51852;SDS011;37894;53.172;6.598;2023-02-15T00:13:35;70.60;;;41.17;;
51852;SDS011;37894;53.172;6.598;2023-02-15T00:16:11;71.88;;;39.45;;
51852;SDS011;37894;53.172;6.598;2023-02-15T00:18:38;70.85;;;37.53;;
51852;SDS011;37894;53.172;6.598;2023-02-15T00:21:05;62.58;;;37.60;;
51852;SDS011;37894;53.172;6.598;2023-02-15T00:23:32;67.88;;;38.70;;
51852;SDS011;37894;53.172;6.598;2023-02-15T00:26:05;69.25;;;37.90;;
51852;SDS011;37894;53.172;6.598;2023-02-15T00:28:38;69.90;;;39.45;;
51852;SDS011;37894;53.172;6.598;2023-02-15T00:31:08;60.53;;;37.05;;
51852;SDS011;37894;53.172;6.598;2023-02-15T00:33:35;68.28;;;39.50;;
51852;SDS011;37894;53.172;6.598;2023-02-15T00:36:02;69.35;;;37.70;;
51852;SDS011;37894;53.172;6.598;2023-02-15T00:38:29;61.45;;;36.10;;
51852;SDS011;37894;53.172;6.598;2023-02-15T00:40:56;62.78;;;36.38;;
51852;SDS011;37894;53.172;6.598;2023-02-15T00:43:23;64.82;;;36.17;;
51852;SDS011;37894;53.172;6.598;2023-02-15T00:45:50;62.05;;;37.15;;
51852;SDS011;37894;53.172;6.598;2023-02-15T00:48:16;59.42;;;35.65;;
51852;SDS011;37894;53.172;6.598;2023-02-15T00:50:44;62.72;;;36.10;;
51852;SDS011;37894;53.172;6.598;2023-02-15T00:53:11;60.25;;;36.53;;
51852;SDS011;37894;53.172;6.598;2023-02-15T00:55:37;64.50;;;36.58;;
51852;SDS011;37894;53.172;6.598;2023-02-15T00:58:05;63.85;;;36.08;;
51852;SDS011;37894;53.172;6.598;2023-02-15T01:00:31;60.65;;;35.53;;
51852;SDS011;37894;53.172;6.598;2023-02-15T01:02:57;64.40;;;34.65;;
51852;SDS011;37894;53.172;6.598;2023-02-15T01:05:23;63.58;;;35.72;;
51852;SDS011;37894;53.172;6.598;2023-02-15T01:07:48;62.38;;;36.03;;
51852;SDS011;37894;53.172;6.598;2023-02-15T01:10:15;57.08;;;33.92;;
51852;SDS011;37894;53.172;6.598;2023-02-15T01:12:41;56.90;;;33.17;;
51852;SDS011;37894;53.172;6.598;2023-02-15T01:15:07;57.95;;;32.78;;
51852;SDS011;37894;53.172;6.598;2023-02-15T01:17:33;55.95;;;31.88;;
51852;SDS011;37894;53.172;6.598;2023-02-15T01:19:59;64.15;;;34.58;;
51852;SDS011;37894;53.172;6.598;2023-02-15T01:22:24;62.67;;;33.83;;
51852;SDS011;37894;53.172;6.598;2023-02-15T01:24:50;65.45;;;34.22;;
51852;SDS011;37894;53.172;6.598;2023-02-15T01:27:16;63.67;;;33.85;;
51852;SDS011;37894;53.172;6.598;2023-02-15T01:29:42;74.45;;;37.60;;
51852;SDS011;37894;53.172;6.598;2023-02-15T01:32:08;75.63;;;36.95;;
51852;SDS011;37894;53.172;6.598;2023-02-15T01:34:34;71.07;;;35.20;;
51852;SDS011;37894;53.172;6.598;2023-02-15T01:37:00;103.35;;;38.00;;
51852;SDS011;37894;53.172;6.598;2023-02-15T01:39:25;96.38;;;39.83;;
51852;SDS011;37894;53.172;6.598;2023-02-15T01:41:51;234.68;;;49.92;;
51852;SDS011;37894;53.172;6.598;2023-02-15T01:47:08;304.08;;;52.15;;
51852;SDS011;37894;53.172;6.598;2023-02-15T01:49:37;210.43;;;47.72;;
51852;SDS011;37894;53.172;6.598;2023-02-15T01:52:06;342.60;;;59.33;;
51852;SDS011;37894;53.172;6.598;2023-02-15T01:54:34;187.30;;;47.17;;
51852;SDS011;37894;53.172;6.598;2023-02-15T01:57:03;181.73;;;49.22;;
51852;SDS011;37894;53.172;6.598;2023-02-15T01:59:32;475.80;;;64.30;;
51852;SDS011;37894;53.172;6.598;2023-02-15T02:02:01;143.93;;;47.28;;
51852;SDS011;37894;53.172;6.598;2023-02-15T02:04:35;135.02;;;44.78;;
51852;SDS011;37894;53.172;6.598;2023-02-15T02:07:10;127.10;;;42.17;;
51852;SDS011;37894;53.172;6.598;2023-02-15T02:09:38;201.75;;;48.05;;
51852;SDS011;37894;53.172;6.598;2023-02-15T02:12:04;198.25;;;44.35;;
51852;SDS011;37894;53.172;6.598;2023-02-15T02:14:31;99.47;;;40.95;;
51852;SDS011;37894;53.172;6.598;2023-02-15T02:16:58;110.05;;;43.58;;
51852;SDS011;37894;53.172;6.598;2023-02-15T02:22:27;97.95;;;42.47;;
51852;SDS011;37894;53.172;6.598;2023-02-15T02:37:15;77.57;;;39.05;;
51852;SDS011;37894;53.172;6.598;2023-02-15T02:42:46;69.20;;;37.90;;
51852;SDS011;37894;53.172;6.598;2023-02-15T02:45:20;67.28;;;37.10;;
51852;SDS011;37894;53.172;6.598;2023-02-15T02:47:58;62.15;;;35.83;;
51852;SDS011;37894;53.172;6.598;2023-02-15T02:50:28;68.43;;;36.95;;
51852;SDS011;37894;53.172;6.598;2023-02-15T02:52:55;69.05;;;36.47;;
51852;SDS011;37894;53.172;6.598;2023-02-15T02:55:34;65.53;;;36.15;;
51852;SDS011;37894;53.172;6.598;2023-02-15T03:01:14;66.80;;;34.30;;
51852;SDS011;37894;53.172;6.598;2023-02-15T03:03:45;66.47;;;36.63;;
51852;SDS011;37894;53.172;6.598;2023-02-15T03:06:19;63.53;;;36.10;;
51852;SDS011;37894;53.172;6.598;2023-02-15T03:09:01;66.43;;;37.83;;
51852;SDS011;37894;53.172;6.598;2023-02-15T03:11:39;72.60;;;38.50;;
51852;SDS011;37894;53.172;6.598;2023-02-15T03:14:09;66.38;;;37.33;;
51852;SDS011;37894;53.172;6.598;2023-02-15T03:16:36;73.25;;;37.72;;
51852;SDS011;37894;53.172;6.598;2023-02-15T03:19:12;67.00;;;36.00;;
51852;SDS011;37894;53.172;6.598;2023-02-15T03:24:23;66.47;;;37.03;;
51852;SDS011;37894;53.172;6.598;2023-02-15T03:26:53;62.08;;;35.35;;
51852;SDS011;37894;53.172;6.598;2023-02-15T03:29:21;67.35;;;36.40;;
51852;SDS011;37894;53.172;6.598;2023-02-15T03:31:52;70.68;;;37.78;;
51852;SDS011;37894;53.172;6.598;2023-02-15T03:34:24;60.97;;;34.70;;
51852;SDS011;37894;53.172;6.598;2023-02-15T03:39:54;64.22;;;35.92;;
51852;SDS011;37894;53.172;6.598;2023-02-15T03:47:25;63.70;;;37.08;;
51852;SDS011;37894;53.172;6.598;2023-02-15T03:53:10;63.50;;;34.17;;
51852;SDS011;37894;53.172;6.598;2023-02-15T03:55:39;66.75;;;36.15;;
51852;SDS011;37894;53.172;6.598;2023-02-15T03:58:05;69.28;;;36.92;;
51852;SDS011;37894;53.172;6.598;2023-02-15T04:00:52;74.65;;;38.65;;
51852;SDS011;37894;53.172;6.598;2023-02-15T04:03:51;72.43;;;38.05;;
51852;SDS011;37894;53.172;6.598;2023-02-15T04:06:22;65.00;;;35.65;;
51852;SDS011;37894;53.172;6.598;2023-02-15T04:08:49;74.38;;;36.97;;
51852;SDS011;37894;53.172;6.598;2023-02-15T04:11:32;63.72;;;38.05;;
51852;SDS011;37894;53.172;6.598;2023-02-15T04:13:58;67.53;;;38.35;;
51852;SDS011;37894;53.172;6.598;2023-02-15T04:16:44;74.53;;;38.60;;
51852;SDS011;37894;53.172;6.598;2023-02-15T04:19:10;67.70;;;39.83;;
51852;SDS011;37894;53.172;6.598;2023-02-15T04:21:54;68.47;;;38.58;;
51852;SDS011;37894;53.172;6.598;2023-02-15T04:24:38;68.90;;;36.22;;
51852;SDS011;37894;53.172;6.598;2023-02-15T04:27:22;66.57;;;36.92;;
51852;SDS011;37894;53.172;6.598;2023-02-15T04:29:48;65.45;;;37.28;;
51852;SDS011;37894;53.172;6.598;2023-02-15T04:32:14;79.97;;;40.58;;
51852;SDS011;37894;53.172;6.598;2023-02-15T04:34:40;70.50;;;38.40;;
51852;SDS011;37894;53.172;6.598;2023-02-15T04:37:06;71.95;;;38.42;;
51852;SDS011;37894;53.172;6.598;2023-02-15T04:39:32;65.95;;;38.08;;
51852;SDS011;37894;53.172;6.598;2023-02-15T04:41:57;68.20;;;38.42;;
51852;SDS011;37894;53.172;6.598;2023-02-15T04:44:23;74.40;;;39.50;;
51852;SDS011;37894;53.172;6.598;2023-02-15T04:46:49;75.40;;;39.13;;
51852;SDS011;37894;53.172;6.598;2023-02-15T04:49:15;89.13;;;42.30;;
51852;SDS011;37894;53.172;6.598;2023-02-15T04:51:40;85.65;;;43.60;;
51852;SDS011;37894;53.172;6.598;2023-02-15T04:54:06;89.88;;;44.67;;
51852;SDS011;37894;53.172;6.598;2023-02-15T04:56:32;85.03;;;43.55;;
51852;SDS011;37894;53.172;6.598;2023-02-15T04:58:59;81.65;;;44.05;;
51852;SDS011;37894;53.172;6.598;2023-02-15T05:01:26;86.13;;;46.08;;
51852;SDS011;37894;53.172;6.598;2023-02-15T05:03:52;91.13;;;45.80;;
51852;SDS011;37894;53.172;6.598;2023-02-15T05:06:18;88.22;;;43.83;;
51852;SDS011;37894;53.172;6.598;2023-02-15T05:08:43;82.00;;;42.63;;
51852;SDS011;37894;53.172;6.598;2023-02-15T05:11:09;87.25;;;45.35;;
51852;SDS011;37894;53.172;6.598;2023-02-15T05:13:35;82.55;;;42.45;;
51852;SDS011;37894;53.172;6.598;2023-02-15T05:16:01;78.97;;;42.60;;
51852;SDS011;37894;53.172;6.598;2023-02-15T05:18:26;76.15;;;41.03;;
51852;SDS011;37894;53.172;6.598;2023-02-15T05:20:53;81.38;;;43.65;;
51852;SDS011;37894;53.172;6.598;2023-02-15T05:23:19;79.13;;;41.40;;
51852;SDS011;37894;53.172;6.598;2023-02-15T05:25:48;84.65;;;43.65;;
51852;SDS011;37894;53.172;6.598;2023-02-15T05:28:33;86.43;;;44.05;;
51852;SDS011;37894;53.172;6.598;2023-02-15T05:33:31;118.57;;;51.50;;
51852;SDS011;37894;53.172;6.598;2023-02-15T05:35:57;125.60;;;54.42;;
51852;SDS011;37894;53.172;6.598;2023-02-15T05:38:23;159.55;;;62.50;;
51852;SDS011;37894;53.172;6.598;2023-02-15T05:40:50;134.98;;;58.35;;
51852;SDS011;37894;53.172;6.598;2023-02-15T05:43:16;126.43;;;54.22;;
51852;SDS011;37894;53.172;6.598;2023-02-15T05:45:46;102.88;;;50.78;;
51852;SDS011;37894;53.172;6.598;2023-02-15T05:48:13;111.80;;;52.67;;
51852;SDS011;37894;53.172;6.598;2023-02-15T05:50:39;124.78;;;58.00;;
51852;SDS011;37894;53.172;6.598;2023-02-15T05:53:05;125.25;;;55.00;;
51852;SDS011;37894;53.172;6.598;2023-02-15T05:55:30;116.72;;;53.13;;
51852;SDS011;37894;53.172;6.598;2023-02-15T05:57:56;122.30;;;55.30;;
51852;SDS011;37894;53.172;6.598;2023-02-15T06:00:22;129.45;;;56.97;;
51852;SDS011;37894;53.172;6.598;2023-02-15T06:02:48;111.43;;;54.13;;
51852;SDS011;37894;53.172;6.598;2023-02-15T06:05:14;179.80;;;66.15;;
51852;SDS011;37894;53.172;6.598;2023-02-15T06:07:42;209.02;;;77.97;;
51852;SDS011;37894;53.172;6.598;2023-02-15T06:10:09;265.10;;;86.90;;
51852;SDS011;37894;53.172;6.598;2023-02-15T06:12:35;268.52;;;82.82;;
51852;SDS011;37894;53.172;6.598;2023-02-15T06:15:01;255.65;;;82.25;;
51852;SDS011;37894;53.172;6.598;2023-02-15T06:17:28;253.02;;;85.97;;
51852;SDS011;37894;53.172;6.598;2023-02-15T06:19:54;265.83;;;85.07;;
51852;SDS011;37894;53.172;6.598;2023-02-15T06:22:20;257.92;;;79.88;;
51852;SDS011;37894;53.172;6.598;2023-02-15T06:24:46;226.13;;;76.65;;
51852;SDS011;37894;53.172;6.598;2023-02-15T06:27:12;195.13;;;76.18;;
51852;SDS011;37894;53.172;6.598;2023-02-15T06:29:37;193.38;;;71.03;;
51852;SDS011;37894;53.172;6.598;2023-02-15T06:32:03;216.02;;;75.22;;
51852;SDS011;37894;53.172;6.598;2023-02-15T06:34:29;193.90;;;72.50;;
51852;SDS011;37894;53.172;6.598;2023-02-15T06:36:55;209.75;;;75.40;;
51852;SDS011;37894;53.172;6.598;2023-02-15T06:39:21;161.60;;;66.45;;
51852;SDS011;37894;53.172;6.598;2023-02-15T06:41:47;163.40;;;66.88;;
51852;SDS011;37894;53.172;6.598;2023-02-15T06:44:13;162.45;;;67.22;;
51852;SDS011;37894;53.172;6.598;2023-02-15T06:46:39;161.95;;;66.95;;
51852;SDS011;37894;53.172;6.598;2023-02-15T06:49:04;171.70;;;67.45;;
51852;SDS011;37894;53.172;6.598;2023-02-15T06:51:30;147.32;;;63.30;;
51852;SDS011;37894;53.172;6.598;2023-02-15T06:53:56;143.80;;;60.95;;
51852;SDS011;37894;53.172;6.598;2023-02-15T06:56:22;147.10;;;61.53;;
51852;SDS011;37894;53.172;6.598;2023-02-15T06:58:48;148.70;;;61.70;;
51852;SDS011;37894;53.172;6.598;2023-02-15T07:01:14;143.32;;;59.65;;
51852;SDS011;37894;53.172;6.598;2023-02-15T07:03:40;146.57;;;59.55;;
51852;SDS011;37894;53.172;6.598;2023-02-15T07:06:06;129.10;;;58.58;;
51852;SDS011;37894;53.172;6.598;2023-02-15T07:08:33;134.38;;;57.88;;
51852;SDS011;37894;53.172;6.598;2023-02-15T07:11:00;129.32;;;59.33;;
51852;SDS011;37894;53.172;6.598;2023-02-15T07:13:45;131.77;;;58.38;;
51852;SDS011;37894;53.172;6.598;2023-02-15T07:16:12;128.50;;;57.88;;
51852;SDS011;37894;53.172;6.598;2023-02-15T07:18:38;125.03;;;57.40;;
51852;SDS011;37894;53.172;6.598;2023-02-15T07:21:04;132.43;;;57.67;;
51852;SDS011;37894;53.172;6.598;2023-02-15T07:23:34;122.88;;;56.20;;
51852;SDS011;37894;53.172;6.598;2023-02-15T07:26:00;123.63;;;57.95;;
51852;SDS011;37894;53.172;6.598;2023-02-15T07:28:27;123.28;;;57.25;;
51852;SDS011;37894;53.172;6.598;2023-02-15T07:30:53;126.25;;;56.55;;
51852;SDS011;37894;53.172;6.598;2023-02-15T07:33:19;119.72;;;56.67;;
51852;SDS011;37894;53.172;6.598;2023-02-15T07:35:48;126.47;;;57.97;;
51852;SDS011;37894;53.172;6.598;2023-02-15T07:38:15;121.55;;;53.70;;
51852;SDS011;37894;53.172;6.598;2023-02-15T07:40:41;115.20;;;54.20;;
51852;SDS011;37894;53.172;6.598;2023-02-15T07:43:07;112.47;;;51.90;;
51852;SDS011;37894;53.172;6.598;2023-02-15T07:45:33;112.75;;;52.88;;
51852;SDS011;37894;53.172;6.598;2023-02-15T07:48:00;105.85;;;52.00;;
51852;SDS011;37894;53.172;6.598;2023-02-15T07:50:27;116.10;;;53.75;;
51852;SDS011;37894;53.172;6.598;2023-02-15T07:52:53;107.70;;;52.05;;
51852;SDS011;37894;53.172;6.598;2023-02-15T07:55:19;104.35;;;47.80;;
51852;SDS011;37894;53.172;6.598;2023-02-15T07:57:46;97.90;;;48.33;;
51852;SDS011;37894;53.172;6.598;2023-02-15T08:00:13;97.93;;;47.95;;
51852;SDS011;37894;53.172;6.598;2023-02-15T08:02:42;93.63;;;45.22;;
51852;SDS011;37894;53.172;6.598;2023-02-15T08:05:12;94.25;;;48.50;;
51852;SDS011;37894;53.172;6.598;2023-02-15T08:07:38;93.68;;;47.88;;
51852;SDS011;37894;53.172;6.598;2023-02-15T08:10:04;97.60;;;45.72;;
51852;SDS011;37894;53.172;6.598;2023-02-15T08:12:30;90.68;;;47.38;;
51852;SDS011;37894;53.172;6.598;2023-02-15T08:14:56;100.72;;;48.28;;
51852;SDS011;37894;53.172;6.598;2023-02-15T08:17:22;91.82;;;46.63;;
51852;SDS011;37894;53.172;6.598;2023-02-15T08:19:48;97.32;;;48.33;;
51852;SDS011;37894;53.172;6.598;2023-02-15T08:22:14;93.32;;;44.75;;
51852;SDS011;37894;53.172;6.598;2023-02-15T08:24:40;84.50;;;44.97;;
51852;SDS011;37894;53.172;6.598;2023-02-15T08:27:07;90.47;;;45.08;;
51852;SDS011;37894;53.172;6.598;2023-02-15T08:29:35;82.30;;;44.30;;
51852;SDS011;37894;53.172;6.598;2023-02-15T08:32:03;85.65;;;44.75;;
51852;SDS011;37894;53.172;6.598;2023-02-15T08:34:31;79.70;;;43.35;;
51852;SDS011;37894;53.172;6.598;2023-02-15T08:36:58;73.50;;;43.17;;
51852;SDS011;37894;53.172;6.598;2023-02-15T08:39:24;77.57;;;41.10;;
51852;SDS011;37894;53.172;6.598;2023-02-15T08:41:50;80.18;;;42.63;;
51852;SDS011;37894;53.172;6.598;2023-02-15T08:44:17;75.97;;;42.40;;
51852;SDS011;37894;53.172;6.598;2023-02-15T08:46:44;72.10;;;40.50;;
51852;SDS011;37894;53.172;6.598;2023-02-15T08:49:12;68.22;;;39.63;;
51852;SDS011;37894;53.172;6.598;2023-02-15T08:51:40;68.13;;;38.92;;
51852;SDS011;37894;53.172;6.598;2023-02-15T08:54:07;75.50;;;39.78;;
51852;SDS011;37894;53.172;6.598;2023-02-15T08:56:36;70.32;;;41.50;;
51852;SDS011;37894;53.172;6.598;2023-02-15T08:59:04;72.38;;;41.15;;
51852;SDS011;37894;53.172;6.598;2023-02-15T09:01:32;71.28;;;41.88;;
51852;SDS011;37894;53.172;6.598;2023-02-15T09:04:03;65.97;;;39.60;;
51852;SDS011;37894;53.172;6.598;2023-02-15T09:06:30;64.30;;;38.60;;
51852;SDS011;37894;53.172;6.598;2023-02-15T09:08:57;56.97;;;36.25;;
51852;SDS011;37894;53.172;6.598;2023-02-15T09:11:27;62.67;;;36.03;;
51852;SDS011;37894;53.172;6.598;2023-02-15T09:13:54;58.75;;;33.78;;
51852;SDS011;37894;53.172;6.598;2023-02-15T09:16:24;60.25;;;35.67;;
51852;SDS011;37894;53.172;6.598;2023-02-15T09:18:51;57.92;;;36.63;;
51852;SDS011;37894;53.172;6.598;2023-02-15T09:21:19;56.47;;;35.40;;
51852;SDS011;37894;53.172;6.598;2023-02-15T09:23:47;61.45;;;34.03;;
51852;SDS011;37894;53.172;6.598;2023-02-15T09:26:15;54.40;;;32.17;;
51852;SDS011;37894;53.172;6.598;2023-02-15T09:28:45;58.00;;;34.22;;
51852;SDS011;37894;53.172;6.598;2023-02-15T09:31:15;62.58;;;35.25;;
51852;SDS011;37894;53.172;6.598;2023-02-15T09:33:43;58.70;;;33.53;;
51852;SDS011;37894;53.172;6.598;2023-02-15T09:36:18;56.53;;;34.95;;
51852;SDS011;37894;53.172;6.598;2023-02-15T09:38:53;60.35;;;34.47;;
51852;SDS011;37894;53.172;6.598;2023-02-15T09:41:27;60.45;;;35.92;;
51852;SDS011;37894;53.172;6.598;2023-02-15T09:47:12;54.65;;;33.42;;
51852;SDS011;37894;53.172;6.598;2023-02-15T09:55:43;52.72;;;31.25;;
51852;SDS011;37894;53.172;6.598;2023-02-15T10:14:40;54.70;;;32.50;;
51852;SDS011;37894;53.172;6.598;2023-02-15T10:20:17;45.97;;;28.83;;
51852;SDS011;37894;53.172;6.598;2023-02-15T10:26:04;51.53;;;30.42;;
51852;SDS011;37894;53.172;6.598;2023-02-15T10:29:03;48.17;;;28.75;;
51852;SDS011;37894;53.172;6.598;2023-02-15T10:34:19;51.90;;;30.17;;
51852;SDS011;37894;53.172;6.598;2023-02-15T10:56:25;44.22;;;28.35;;
51852;SDS011;37894;53.172;6.598;2023-02-15T10:59:19;54.58;;;28.75;;
51852;SDS011;37894;53.172;6.598;2023-02-15T11:07:21;47.58;;;28.60;;
51852;SDS011;37894;53.172;6.598;2023-02-15T11:12:58;45.25;;;28.05;;
51852;SDS011;37894;53.172;6.598;2023-02-15T11:15:35;45.75;;;28.88;;
51852;SDS011;37894;53.172;6.598;2023-02-15T11:20:37;48.15;;;29.30;;
51852;SDS011;37894;53.172;6.598;2023-02-15T11:23:14;46.08;;;27.88;;
51852;SDS011;37894;53.172;6.598;2023-02-15T11:25:42;43.85;;;27.25;;
51852;SDS011;37894;53.172;6.598;2023-02-15T11:28:20;47.60;;;27.38;;
51852;SDS011;37894;53.172;6.598;2023-02-15T11:30:51;43.75;;;27.38;;
51852;SDS011;37894;53.172;6.598;2023-02-15T11:33:29;44.70;;;28.58;;
51852;SDS011;37894;53.172;6.598;2023-02-15T11:36:04;42.60;;;26.33;;
51852;SDS011;37894;53.172;6.598;2023-02-15T11:38:34;43.60;;;26.70;;
51852;SDS011;37894;53.172;6.598;2023-02-15T11:41:03;43.38;;;26.40;;
51852;SDS011;37894;53.172;6.598;2023-02-15T11:43:33;43.50;;;24.85;;
51852;SDS011;37894;53.172;6.598;2023-02-15T11:46:07;43.28;;;24.83;;
51852;SDS011;37894;53.172;6.598;2023-02-15T11:48:35;42.47;;;24.40;;
51852;SDS011;37894;53.172;6.598;2023-02-15T11:51:01;37.50;;;23.92;;
51852;SDS011;37894;53.172;6.598;2023-02-15T11:53:28;39.90;;;23.77;;
51852;SDS011;37894;53.172;6.598;2023-02-15T11:55:58;44.70;;;25.20;;
51852;SDS011;37894;53.172;6.598;2023-02-15T12:01:14;40.00;;;23.65;;
51852;SDS011;37894;53.172;6.598;2023-02-15T12:03:59;40.22;;;23.58;;
51852;SDS011;37894;53.172;6.598;2023-02-15T12:06:46;41.45;;;24.05;;
51852;SDS011;37894;53.172;6.598;2023-02-15T12:09:33;40.88;;;22.95;;
51852;SDS011;37894;53.172;6.598;2023-02-15T12:12:23;36.65;;;21.92;;
51852;SDS011;37894;53.172;6.598;2023-02-15T12:14:58;40.83;;;22.67;;
51852;SDS011;37894;53.172;6.598;2023-02-15T12:17:51;38.15;;;23.90;;
51852;SDS011;37894;53.172;6.598;2023-02-15T12:22:53;37.35;;;23.60;;
51852;SDS011;37894;53.172;6.598;2023-02-15T12:25:33;41.60;;;24.27;;
51852;SDS011;37894;53.172;6.598;2023-02-15T12:28:02;47.15;;;25.70;;
51852;SDS011;37894;53.172;6.598;2023-02-15T12:30:34;42.63;;;24.25;;
51852;SDS011;37894;53.172;6.598;2023-02-15T12:35:45;43.22;;;26.10;;
51852;SDS011;37894;53.172;6.598;2023-02-15T12:40:40;47.55;;;26.25;;
51852;SDS011;37894;53.172;6.598;2023-02-15T12:43:23;44.50;;;26.83;;
51852;SDS011;37894;53.172;6.598;2023-02-15T12:45:52;39.63;;;24.40;;
51852;SDS011;37894;53.172;6.598;2023-02-15T12:48:18;43.85;;;26.88;;
51852;SDS011;37894;53.172;6.598;2023-02-15T12:50:49;46.75;;;27.55;;
51852;SDS011;37894;53.172;6.598;2023-02-15T12:55:55;49.08;;;28.92;;
51852;SDS011;37894;53.172;6.598;2023-02-15T12:58:26;47.53;;;28.20;;
51852;SDS011;37894;53.172;6.598;2023-02-15T13:01:03;47.13;;;28.55;;
51852;SDS011;37894;53.172;6.598;2023-02-15T13:03:29;51.38;;;28.50;;
51852;SDS011;37894;53.172;6.598;2023-02-15T13:05:56;51.75;;;29.10;;
51852;SDS011;37894;53.172;6.598;2023-02-15T13:08:58;49.63;;;28.58;;
51852;SDS011;37894;53.172;6.598;2023-02-15T13:11:21;44.00;;;26.60;;
51852;SDS011;37894;53.172;6.598;2023-02-15T13:13:56;48.50;;;27.13;;
51852;SDS011;37894;53.172;6.598;2023-02-15T13:16:47;47.10;;;27.70;;
51852;SDS011;37894;53.172;6.598;2023-02-15T13:19:13;43.35;;;25.40;;
51852;SDS011;37894;53.172;6.598;2023-02-15T13:21:47;48.80;;;26.17;;
51852;SDS011;37894;53.172;6.598;2023-02-15T13:24:17;47.90;;;28.42;;
51852;SDS011;37894;53.172;6.598;2023-02-15T13:26:47;47.72;;;28.55;;
51852;SDS011;37894;53.172;6.598;2023-02-15T13:34:51;46.55;;;27.60;;
51852;SDS011;37894;53.172;6.598;2023-02-15T13:40:13;48.45;;;29.33;;
51852;SDS011;37894;53.172;6.598;2023-02-15T13:43:02;46.05;;;28.90;;
51852;SDS011;37894;53.172;6.598;2023-02-15T13:45:54;42.40;;;27.10;;
51852;SDS011;37894;53.172;6.598;2023-02-15T13:48:47;49.97;;;29.00;;
51852;SDS011;37894;53.172;6.598;2023-02-15T13:59:19;49.25;;;26.42;;
51852;SDS011;37894;53.172;6.598;2023-02-15T14:07:49;41.75;;;24.77;;
51852;SDS011;37894;53.172;6.598;2023-02-15T14:15:38;35.85;;;23.65;;
51852;SDS011;37894;53.172;6.598;2023-02-15T14:18:39;37.80;;;22.15;;
51852;SDS011;37894;53.172;6.598;2023-02-15T14:31:53;41.60;;;23.02;;
51852;SDS011;37894;53.172;6.598;2023-02-15T14:34:37;41.00;;;24.55;;
51852;SDS011;37894;53.172;6.598;2023-02-15T14:37:41;41.47;;;24.52;;
51852;SDS011;37894;53.172;6.598;2023-02-15T14:40:19;41.38;;;23.88;;
51852;SDS011;37894;53.172;6.598;2023-02-15T14:43:20;42.15;;;24.08;;
51852;SDS011;37894;53.172;6.598;2023-02-15T14:48:56;39.83;;;24.05;;
51852;SDS011;37894;53.172;6.598;2023-02-15T14:54:52;39.67;;;23.42;;
51852;SDS011;37894;53.172;6.598;2023-02-15T14:59:36;40.90;;;23.85;;
51852;SDS011;37894;53.172;6.598;2023-02-15T15:04:38;41.08;;;24.17;;
51852;SDS011;37894;53.172;6.598;2023-02-15T15:09:37;43.95;;;24.58;;
51852;SDS011;37894;53.172;6.598;2023-02-15T15:12:35;40.35;;;24.98;;
51852;SDS011;37894;53.172;6.598;2023-02-15T15:14:52;39.05;;;24.50;;
51852;SDS011;37894;53.172;6.598;2023-02-15T15:20:11;46.30;;;25.55;;
51852;SDS011;37894;53.172;6.598;2023-02-15T15:22:39;42.83;;;25.00;;
51852;SDS011;37894;53.172;6.598;2023-02-15T15:25:11;40.03;;;25.17;;
51852;SDS011;37894;53.172;6.598;2023-02-15T15:27:56;41.13;;;25.15;;
51852;SDS011;37894;53.172;6.598;2023-02-15T15:32:53;43.03;;;24.75;;
51852;SDS011;37894;53.172;6.598;2023-02-15T15:41:35;42.17;;;24.23;;
51852;SDS011;37894;53.172;6.598;2023-02-15T15:49:45;41.35;;;25.05;;
51852;SDS011;37894;53.172;6.598;2023-02-15T15:52:15;42.88;;;26.00;;
51852;SDS011;37894;53.172;6.598;2023-02-15T15:54:44;45.13;;;25.45;;
51852;SDS011;37894;53.172;6.598;2023-02-15T16:00:04;47.13;;;27.45;;
51852;SDS011;37894;53.172;6.598;2023-02-15T16:02:51;47.28;;;26.00;;
51852;SDS011;37894;53.172;6.598;2023-02-15T16:05:18;41.30;;;25.70;;
51852;SDS011;37894;53.172;6.598;2023-02-15T16:07:45;40.95;;;24.55;;
51852;SDS011;37894;53.172;6.598;2023-02-15T16:10:21;43.33;;;25.60;;
51852;SDS011;37894;53.172;6.598;2023-02-15T16:12:49;46.10;;;26.65;;
51852;SDS011;37894;53.172;6.598;2023-02-15T16:15:17;40.80;;;26.17;;
51852;SDS011;37894;53.172;6.598;2023-02-15T16:17:50;41.53;;;25.20;;
51852;SDS011;37894;53.172;6.598;2023-02-15T16:20:26;41.40;;;25.33;;
51852;SDS011;37894;53.172;6.598;2023-02-15T16:26:09;43.70;;;25.60;;
51852;SDS011;37894;53.172;6.598;2023-02-15T16:28:25;43.90;;;25.80;;
51852;SDS011;37894;53.172;6.598;2023-02-15T16:30:58;43.60;;;24.88;;
51852;SDS011;37894;53.172;6.598;2023-02-15T16:33:48;42.60;;;25.60;;
51852;SDS011;37894;53.172;6.598;2023-02-15T16:36:25;42.25;;;25.35;;
51852;SDS011;37894;53.172;6.598;2023-02-15T16:41:27;43.67;;;26.77;;
51852;SDS011;37894;53.172;6.598;2023-02-15T16:43:54;45.53;;;27.95;;
51852;SDS011;37894;53.172;6.598;2023-02-15T16:46:27;46.05;;;27.23;;
51852;SDS011;37894;53.172;6.598;2023-02-15T16:48:54;53.67;;;28.95;;
51852;SDS011;37894;53.172;6.598;2023-02-15T16:51:25;46.88;;;26.60;;
51852;SDS011;37894;53.172;6.598;2023-02-15T16:53:53;45.28;;;27.17;;
51852;SDS011;37894;53.172;6.598;2023-02-15T16:56:24;46.63;;;27.55;;
51852;SDS011;37894;53.172;6.598;2023-02-15T16:58:53;46.97;;;27.02;;
51852;SDS011;37894;53.172;6.598;2023-02-15T17:01:20;50.90;;;28.70;;
51852;SDS011;37894;53.172;6.598;2023-02-15T17:03:49;52.58;;;30.33;;
51852;SDS011;37894;53.172;6.598;2023-02-15T17:06:34;54.47;;;30.98;;
51852;SDS011;37894;53.172;6.598;2023-02-15T17:09:04;52.85;;;35.78;;
51852;SDS011;37894;53.172;6.598;2023-02-15T17:11:42;55.03;;;33.00;;
51852;SDS011;37894;53.172;6.598;2023-02-15T17:16:44;48.15;;;28.17;;
51852;SDS011;37894;53.172;6.598;2023-02-15T17:19:16;50.30;;;29.13;;
51852;SDS011;37894;53.172;6.598;2023-02-15T17:21:52;52.17;;;28.35;;
51852;SDS011;37894;53.172;6.598;2023-02-15T17:26:57;46.85;;;28.10;;
51852;SDS011;37894;53.172;6.598;2023-02-15T17:29:31;47.13;;;28.77;;
51852;SDS011;37894;53.172;6.598;2023-02-15T17:32:15;51.92;;;30.45;;
51852;SDS011;37894;53.172;6.598;2023-02-15T17:37:47;52.03;;;30.95;;
51852;SDS011;37894;53.172;6.598;2023-02-15T17:40:18;54.53;;;32.22;;
51852;SDS011;37894;53.172;6.598;2023-02-15T17:42:51;48.92;;;28.10;;
51852;SDS011;37894;53.172;6.598;2023-02-15T17:45:17;51.15;;;32.15;;
51852;SDS011;37894;53.172;6.598;2023-02-15T17:47:45;44.58;;;28.15;;
51852;SDS011;37894;53.172;6.598;2023-02-15T17:50:19;54.60;;;30.10;;
51852;SDS011;37894;53.172;6.598;2023-02-15T17:52:47;49.40;;;29.40;;
51852;SDS011;37894;53.172;6.598;2023-02-15T17:55:13;50.55;;;29.55;;
51852;SDS011;37894;53.172;6.598;2023-02-15T17:57:59;53.78;;;29.92;;
51852;SDS011;37894;53.172;6.598;2023-02-15T18:00:29;48.53;;;27.73;;
51852;SDS011;37894;53.172;6.598;2023-02-15T18:03:14;45.55;;;27.75;;